Nieuw-Lotbroek, Netherlands
Current Conditions -  °F | °C
As of 11:50 AM on Wednesday 22 Oct 2014 (Local Time) from ETNG Reporting Station
Broken Clouds Broken Clouds  
Wind Chill: 43°   Ceiling: 5000
Heat Index: 48°   Visibility: 6mi
Dew Point: 45°   Wind: 14mph
Humidity: 87%   Direction: 270°W
Pressure: 30.09"   Gusts: 25mph
Location:  50.91°N, 5.93°E
Report Text: ETNG 220950Z 27012G22KT 9999 FEW020 SCT033 BKN050 09/07 Q1019 TEMPO -SHRA
Loading
Personal Weather Stations






























Interactive Weather Map
Tropical Storm Tracking
New forecast layout! Learn more

10-Day Weather Forecast

Advertisements
Track Severe Weather on mobile